Time;durP1;ratioP1;P1;durP2;ratioP2;P2;SDS_P1;SDS_P2;PMS_P1;PMS_P2;Temp;Humidity;BMP_temperature;BMP_pressure;BME280_temperature;BME280_humidity;BME280_pressure;Samples;Min_cycle;Max_cycle;Signal;HPM_P1;HPM_P2
2022/04/15 00:03:05;;;;;;;42.80;29.42;;;;;;;8.54;79.14;102528.69;10297708;28;20034;-76
2022/04/15 00:08:10;;;;;;;44.58;28.20;;;;;;;8.56;79.54;102532.09;10299817;28;20039;-75
2022/04/15 00:13:12;;;;;;;47.15;31.15;;;;;;;8.54;79.77;102539.47;10297944;28;20034;-75
2022/04/15 00:18:12;;;;;;;45.72;30.45;;;;;;;8.55;80.23;102529.53;10298848;28;20455;-75
2022/04/15 00:23:12;;;;;;;39.25;29.63;;;;;;;8.57;80.85;102538.34;10298888;28;20031;-76
2022/04/15 00:28:13;;;;;;;43.38;32.67;;;;;;;8.54;81.69;102538.63;10297882;28;20065;-75
2022/04/15 00:33:13;;;;;;;55.13;32.97;;;;;;;8.54;81.60;102541.34;10298480;28;20046;-75
2022/04/15 00:38:14;;;;;;;55.17;33.00;;;;;;;8.49;81.57;102540.94;10298723;28;20459;-75
2022/04/15 00:43:14;;;;;;;49.45;34.78;;;;;;;8.49;81.67;102532.84;10296668;28;20081;-76
2022/04/15 00:48:16;;;;;;;53.03;33.90;;;;;;;8.48;84.69;102540.06;10298386;28;20051;-75
2022/04/15 00:53:21;;;;;;;60.78;36.35;;;;;;;8.53;83.08;102547.75;10295005;28;20364;-75
2022/04/15 00:58:22;;;;;;;50.50;33.88;;;;;;;8.53;83.50;102553.16;10296373;28;20066;-75
2022/04/15 01:03:22;;;;;;;52.58;36.38;;;;;;;8.48;83.17;102558.09;10297956;28;20057;-74
2022/04/15 01:08:23;;;;;;;50.88;33.83;;;;;;;8.39;82.74;102549.00;10297590;28;20108;-75
2022/04/15 01:13:24;;;;;;;50.20;33.20;;;;;;;8.34;82.62;102553.97;10280886;28;20130;-76
2022/04/15 01:18:25;;;;;;;56.03;36.33;;;;;;;8.30;82.42;102555.25;10294819;28;20038;-75
2022/04/15 01:23:25;;;;;;;54.75;33.85;;;;;;;8.26;82.84;102559.22;10295951;28;20042;-75
2022/04/15 01:28:25;;;;;;;51.50;34.78;;;;;;;8.20;82.29;102547.16;10312034;28;20058;-75
2022/04/15 01:33:26;;;;;;;59.47;37.05;;;;;;;8.15;82.24;102568.31;10295560;28;20125;-75
2022/04/15 01:38:28;;;;;;;52.88;34.92;;;;;;;8.13;83.03;102562.19;10295570;28;20034;-75
2022/04/15 01:43:28;;;;;;;54.95;35.83;;;;;;;8.11;83.06;102565.03;10294353;28;20046;-75
2022/04/15 01:48:28;;;;;;;55.85;32.88;;;;;;;8.07;83.02;102563.63;10295644;28;20043;-75
2022/04/15 01:53:29;;;;;;;43.05;35.63;;;;;;;8.02;82.67;102571.28;10296700;28;20085;-75
2022/04/15 01:58:29;;;;;;;50.67;34.50;;;;;;;7.97;83.23;102576.22;10297290;28;20067;-75
2022/04/15 02:03:29;;;;;;;50.90;33.80;;;;;;;7.90;83.85;102572.38;10293600;28;20471;-76
2022/04/15 02:08:30;;;;;;;72.05;39.90;;;;;;;7.91;85.70;102574.97;10293778;28;20372;-75
2022/04/15 02:13:30;;;;;;;57.92;37.10;;;;;;;7.88;85.00;102583.31;10294607;28;20035;-77
2022/04/15 02:18:31;;;;;;;65.82;38.42;;;;;;;7.88;86.17;102574.34;10295597;28;20216;-75
2022/04/15 02:23:31;;;;;;;59.67;38.67;;;;;;;7.88;88.67;102580.63;10295444;28;20479;-75
2022/04/15 02:28:31;;;;;;;66.35;42.85;;;;;;;7.86;90.52;102590.69;10293346;28;20051;-75
2022/04/15 02:33:32;;;;;;;58.22;39.22;;;;;;;7.82;94.12;102596.50;10294258;28;20027;-75
2022/04/15 02:38:32;;;;;;;68.30;43.42;;;;;;;8.00;100.00;102600.22;10278341;28;20489;-75
2022/04/15 02:43:33;;;;;;;76.93;43.58;;;;;;;8.12;100.00;102615.31;10293453;28;20113;-75
2022/04/15 02:48:33;;;;;;;79.05;45.03;;;;;;;8.10;100.00;102611.03;10292729;28;20583;-76
2022/04/15 02:53:34;;;;;;;82.70;45.40;;;;;;;8.11;100.00;102610.06;10293800;28;20088;-75
2022/04/15 02:58:34;;;;;;;99.57;42.75;;;;;;;8.13;100.00;102622.41;10294085;28;20544;-75
2022/04/15 03:03:35;;;;;;;71.72;40.90;;;;;;;8.12;100.00;102626.09;10292524;28;20035;-75
2022/04/15 03:08:35;;;;;;;85.75;43.40;;;;;;;8.05;100.00;102624.09;10293025;28;20455;-75
2022/04/15 03:13:36;;;;;;;60.80;39.97;;;;;;;8.12;100.00;102636.03;10291755;28;20043;-75
2022/04/15 03:18:36;;;;;;;74.22;45.38;;;;;;;8.15;100.00;102625.81;10299734;28;20038;-75
2022/04/15 03:23:39;;;;;;;83.43;47.20;;;;;;;8.18;100.00;102632.78;10301455;28;20121;-75
2022/04/15 03:28:39;;;;;;;62.13;39.28;;;;;;;8.32;100.00;102636.91;10301765;28;20054;-75
2022/04/15 03:33:40;;;;;;;69.32;42.70;;;;;;;8.36;100.00;102638.38;10301259;28;20046;-75
2022/04/15 03:38:40;;;;;;;64.95;40.40;;;;;;;8.41;100.00;102641.53;10300444;28;20534;-76
2022/04/15 03:43:41;;;;;;;60.63;39.15;;;;;;;8.47;100.00;102651.75;10302032;28;20471;-75
2022/04/15 03:48:41;;;;;;;69.50;39.70;;;;;;;8.50;100.00;102651.47;10301868;28;20038;-75
2022/04/15 03:53:42;;;;;;;66.88;39.30;;;;;;;8.53;100.00;102648.50;10299738;28;20093;-75
2022/04/15 03:58:42;;;;;;;81.25;40.30;;;;;;;8.47;100.00;102651.75;10300936;28;20039;-75
2022/04/15 04:03:42;;;;;;;60.30;36.22;;;;;;;8.44;100.00;102651.19;10298912;28;20050;-75
2022/04/15 04:08:49;;;;;;;59.85;38.17;;;;;;;8.48;100.00;102652.59;10299288;28;20047;-75
2022/04/15 04:13:49;;;;;;;73.80;38.90;;;;;;;8.51;100.00;102653.16;10299901;28;20033;-75
2022/04/15 04:18:49;;;;;;;67.13;43.08;;;;;;;8.46;100.00;102652.75;10297222;28;20039;-76
2022/04/15 04:23:50;;;;;;;59.13;39.42;;;;;;;8.51;100.00;102663.13;10281452;28;20407;-75
2022/04/15 04:28:51;;;;;;;66.22;39.60;;;;;;;8.52;100.00;102654.03;10297766;28;20058;-76
2022/04/15 04:33:51;;;;;;;76.95;43.38;;;;;;;8.60;100.00;102663.13;10298327;28;20027;-75
2022/04/15 04:38:51;;;;;;;69.57;41.70;;;;;;;8.69;100.00;102666.00;10297586;28;20040;-75
2022/04/15 04:43:52;;;;;;;62.53;40.97;;;;;;;8.73;100.00;102670.94;10296833;28;20430;-76
2022/04/15 04:48:52;;;;;;;62.65;40.60;;;;;;;8.63;100.00;102674.66;10297810;28;20042;-75
2022/04/15 04:53:52;;;;;;;63.30;41.47;;;;;;;8.56;100.00;102675.22;10280312;28;20031;-75
2022/04/15 04:58:53;;;;;;;58.75;41.13;;;;;;;8.50;100.00;102683.88;10298339;28;20467;-76
2022/04/15 05:03:53;;;;;;;46.38;30.90;;;;;;;8.33;100.00;102690.78;10297180;28;20035;-75
2022/04/15 05:08:54;;;;;;;45.63;31.35;;;;;;;8.48;100.00;102698.50;10295764;28;20043;-76
2022/04/15 05:13:54;;;;;;;46.88;27.20;;;;;;;8.61;100.00;102702.66;10296888;28;20467;-75
2022/04/15 05:18:54;;;;;;;29.67;23.63;;;;;;;8.51;100.00;102719.81;10296644;28;20043;-75
2022/04/15 05:23:55;;;;;;;37.08;26.38;;;;;;;8.44;100.00;102715.97;10296293;28;20074;-75
2022/04/15 05:28:55;;;;;;;36.03;25.40;;;;;;;8.39;100.00;102716.38;10296595;28;20098;-75
2022/04/15 05:33:55;;;;;;;35.67;25.65;;;;;;;8.33;100.00;102733.13;10294296;28;20031;-75
2022/04/15 05:38:56;;;;;;;32.65;26.42;;;;;;;8.24;100.00;102728.56;10277577;28;20471;-74
2022/04/15 05:43:58;;;;;;;34.67;25.00;;;;;;;8.24;100.00;102732.09;10297263;28;20031;-75
2022/04/15 05:48:59;;;;;;;44.83;29.20;;;;;;;8.28;100.00;102746.16;10297816;28;20022;-75
2022/04/15 05:53:59;;;;;;;43.60;29.27;;;;;;;8.33;100.00;102750.16;10293472;28;20031;-75
2022/04/15 05:58:59;;;;;;;48.72;29.10;;;;;;;8.32;100.00;102751.13;10294331;28;20085;-75
2022/04/15 06:04:00;;;;;;;44.50;31.70;;;;;;;8.33;100.00;102757.41;10293816;28;20097;-75
2022/04/15 06:09:00;;;;;;;42.30;29.25;;;;;;;8.52;100.00;102760.19;10293894;28;20038;-75
2022/04/15 06:14:03;;;;;;;35.53;25.25;;;;;;;8.55;100.00;102757.22;10294015;28;20043;-75
2022/04/15 06:19:04;;;;;;;34.53;26.40;;;;;;;8.55;100.00;102783.34;10294455;28;20039;-75
2022/04/15 06:24:08;;;;;;;36.92;24.60;;;;;;;8.49;100.00;102768.59;10293054;28;20031;-75
2022/04/15 06:29:08;;;;;;;33.92;26.75;;;;;;;8.46;100.00;102771.56;10294686;28;20050;-74
2022/04/15 06:34:08;;;;;;;35.60;26.83;;;;;;;8.49;100.00;102779.38;10295443;28;20039;-74
2022/04/15 06:39:09;;;;;;;34.97;20.90;;;;;;;8.81;100.00;102787.28;10296027;28;20130;-76
2022/04/15 06:44:09;;;;;;;41.20;25.60;;;;;;;8.88;100.00;102797.53;10297400;28;20038;-74
2022/04/15 06:49:09;;;;;;;30.20;22.80;;;;;;;8.98;100.00;102798.38;10293975;28;20046;-76
2022/04/15 06:54:10;;;;;;;37.60;25.58;;;;;;;9.05;100.00;102794.97;10302060;28;20388;-75
2022/04/15 06:59:10;;;;;;;36.03;24.80;;;;;;;9.24;100.00;102804.09;10300801;28;20062;-75
2022/04/15 07:04:11;;;;;;;35.92;21.83;;;;;;;9.28;100.00;102810.91;10318603;28;20062;-76
2022/04/15 07:09:12;;;;;;;32.30;22.08;;;;;;;9.18;100.00;102818.16;10302583;28;20042;-75
2022/04/15 07:14:12;;;;;;;31.67;23.10;;;;;;;9.20;100.00;102821.59;10302002;28;20453;-75
2022/04/15 07:19:13;;;;;;;29.85;22.17;;;;;;;9.28;100.00;102822.59;10301931;28;20062;-76
2022/04/15 07:24:13;;;;;;;36.58;22.65;;;;;;;9.35;100.00;102820.19;10300938;28;20488;-75
2022/04/15 07:29:13;;;;;;;23.33;18.48;;;;;;;9.37;100.00;102823.56;10301002;28;20097;-76
2022/04/15 07:34:14;;;;;;;26.52;18.23;;;;;;;9.38;100.00;102821.72;10300679;28;20031;-76
2022/04/15 07:39:14;;;;;;;27.92;17.45;;;;;;;9.69;100.00;102830.53;10300186;28;20050;-76
2022/04/15 07:44:15;;;;;;;24.65;15.32;;;;;;;9.86;100.00;102829.81;10299195;28;20066;-76
2022/04/15 07:49:15;;;;;;;19.63;14.50;;;;;;;10.26;100.00;102834.13;10299828;28;20035;-75
2022/04/15 07:54:16;;;;;;;13.20;11.80;;;;;;;10.63;100.00;102833.25;10300911;28;20034;-76
2022/04/15 07:59:18;;;;;;;13.60;9.93;;;;;;;10.39;99.64;102840.06;10299689;28;20474;-75
2022/04/15 08:04:18;;;;;;;13.63;7.93;;;;;;;10.40;99.60;102830.94;10299020;28;20027;-75
2022/04/15 08:09:19;;;;;;;12.63;8.60;;;;;;;10.59;100.00;102842.69;10300826;28;20041;-75
2022/04/15 08:14:20;;;;;;;12.63;10.57;;;;;;;12.39;97.73;102836.19;10299201;28;20039;-75
2022/04/15 08:19:20;;;;;;;10.20;7.38;;;;;;;13.33;90.55;102841.41;10298813;28;20038;-75
2022/04/15 08:24:21;;;;;;;9.30;6.55;;;;;;;12.99;86.03;102838.78;10297736;28;20550;-75
2022/04/15 08:29:21;;;;;;;6.50;5.38;;;;;;;14.27;77.10;102852.78;10298842;28;20086;-75
2022/04/15 08:34:22;;;;;;;6.20;5.70;;;;;;;13.19;80.77;102842.91;10297507;28;20097;-76
2022/04/15 08:39:22;;;;;;;4.95;4.63;;;;;;;14.08;80.26;102849.41;10238799;28;20109;-76
2022/04/15 08:44:23;;;;;;;7.18;5.15;;;;;;;15.95;79.59;102845.81;10280890;28;20042;-77
2022/04/15 08:49:23;;;;;;;4.82;4.38;;;;;;;17.26;72.89;102850.56;10297488;28;20462;-76
2022/04/15 08:54:24;;;;;;;7.35;4.18;;;;;;;17.39;69.05;102864.38;10280188;28;20042;-76
2022/04/15 08:59:24;;;;;;;6.18;4.13;;;;;;;17.40;62.97;102857.84;10281160;28;20513;-77
2022/04/15 09:04:24;;;;;;;4.30;3.65;;;;;;;16.88;66.11;102856.22;10297043;28;20027;-76
2022/04/15 09:09:31;;;;;;;4.05;3.80;;;;;;;17.72;60.70;102863.84;10295926;28;20030;-78
2022/04/15 09:14:32;;;;;;;3.83;3.53;;;;;;;17.96;64.46;102859.84;10296278;28;20054;-77
2022/04/15 09:19:32;;;;;;;3.70;3.40;;;;;;;17.66;62.56;102865.47;10296432;28;20038;-76
2022/04/15 09:24:33;;;;;;;4.15;3.78;;;;;;;16.74;62.19;102852.44;10297184;28;20034;-75
2022/04/15 09:29:39;;;;;;;6.85;4.40;;;;;;;15.99;64.65;102869.03;10297136;28;20061;-76
2022/04/15 09:35:03;;;;;;;5.88;4.22;;;;;;;16.96;64.87;102868.94;10295623;28;20038;-70
2022/04/15 09:40:14;;;;;;;3.47;3.22;;;;;;;17.48;61.94;102873.31;10279693;28;20049;-70
2022/04/15 09:45:19;;;;;;;3.88;3.55;;;;;;;17.43;60.10;102870.31;10296076;28;20041;-71
2022/04/15 09:50:26;;;;;;;6.75;4.20;;;;;;;17.46;59.72;102878.16;10299952;28;20035;-75
2022/04/15 09:55:27;;;;;;;3.55;3.33;;;;;;;16.64;61.63;102881.13;10295569;28;20121;-69
2022/04/15 10:00:29;;;;;;;4.60;4.15;;;;;;;17.35;60.89;102871.28;10278189;28;20387;-69
2022/04/15 10:05:29;;;;;;;4.47;4.05;;;;;;;17.79;58.30;102880.38;10294429;28;20170;-77
2022/04/15 10:10:32;;;;;;;2.97;2.78;;;;;;;17.40;58.20;102873.44;10293555;28;20031;-74
2022/04/15 10:15:34;;;;;;;3.65;3.30;;;;;;;17.31;60.80;102875.44;10295478;28;20125;-76
2022/04/15 10:20:34;;;;;;;4.03;3.33;;;;;;;17.69;58.25;102877.94;10294091;28;20038;-70
2022/04/15 10:25:35;;;;;;;7.20;3.50;;;;;;;19.36;54.16;102866.91;10261227;28;20364;-70
2022/04/15 10:30:36;;;;;;;3.75;3.35;;;;;;;19.23;53.30;102870.47;10295813;28;20133;-69
2022/04/15 10:35:36;;;;;;;4.22;3.92;;;;;;;19.82;53.98;102870.81;10293032;28;20355;-76
2022/04/15 10:40:41;;;;;;;7.28;3.97;;;;;;;19.76;51.54;102877.16;10295700;28;20423;-74
2022/04/15 10:45:42;;;;;;;3.30;3.10;;;;;;;19.65;51.09;102871.19;10294976;28;20126;-70
2022/04/15 10:50:42;;;;;;;5.00;3.55;;;;;;;19.70;52.04;102863.19;10294489;28;20046;-76
2022/04/15 10:55:52;;;;;;;2.97;2.78;;;;;;;19.62;51.05;102865.25;10276149;28;20422;-77
2022/04/15 11:01:18;;;;;;;5.30;3.75;;;;;;;18.16;53.77;102872.88;10293257;28;20054;-76
2022/04/15 11:06:28;;;;;;;4.35;3.63;;;;;;;18.22;53.94;102863.81;10293425;28;20471;-76
2022/04/15 11:11:33;;;;;;;4.05;3.67;;;;;;;19.00;53.45;102856.25;10292312;28;20034;-77
2022/04/15 11:16:47;;;;;;;4.22;3.08;;;;;;;19.78;49.74;102869.50;10293058;28;20077;-76
2022/04/15 11:21:50;;;;;;;4.47;4.10;;;;;;;19.87;51.20;102857.25;10293777;28;20086;-77
2022/04/15 11:26:55;;;;;;;5.38;3.97;;;;;;;20.86;53.41;102862.53;10293057;28;20035;-77
2022/04/15 11:32:06;;;;;;;7.07;2.95;;;;;;;21.33;50.97;102862.31;10291909;28;20058;-77
2022/04/15 11:37:06;;;;;;;3.63;3.33;;;;;;;19.97;53.12;102865.91;10294420;28;20035;-77
2022/04/15 11:42:09;;;;;;;4.50;3.58;;;;;;;19.83;55.91;102867.00;10283724;28;20080;-77
2022/04/15 11:47:16;;;;;;;3.85;3.55;;;;;;;18.93;52.95;102866.38;10299547;28;20043;-77
2022/04/15 11:52:26;;;;;;;4.65;4.00;;;;;;;18.73;55.86;102858.03;10300716;28;20050;-76
2022/04/15 11:57:29;;;;;;;5.88;3.90;;;;;;;18.79;52.70;102851.72;10299155;28;20058;-77
2022/04/15 12:02:30;;;;;;;3.00;2.72;;;;;;;18.56;55.50;102854.75;10298429;28;20082;-76
2022/04/15 12:07:32;;;;;;;2.97;2.70;;;;;;;19.92;54.32;102871.22;10299879;28;20397;-77
2022/04/15 12:12:32;;;;;;;4.90;3.38;;;;;;;19.67;49.23;102868.25;10266727;28;20050;-75
2022/04/15 12:17:33;;;;;;;3.63;3.33;;;;;;;20.50;52.97;102874.09;10299526;28;20031;-78
2022/04/15 12:22:34;;;;;;;7.32;3.67;;;;;;;21.22;47.58;102871.25;10283096;28;20042;-77
2022/04/15 12:27:35;;;;;;;5.07;3.75;;;;;;;20.71;51.19;102866.63;10281029;28;20081;-78
2022/04/15 12:32:36;;;;;;;7.28;4.25;;;;;;;22.04;52.68;102861.13;10301639;28;20085;-76
2022/04/15 12:37:43;;;;;;;4.10;3.70;;;;;;;22.04;43.44;102853.69;10297534;28;20514;-77
2022/04/15 12:42:44;;;;;;;6.00;4.78;;;;;;;21.18;49.25;102859.84;10282508;28;20035;-76
2022/04/15 12:48:00;;;;;;;4.43;4.03;;;;;;;22.17;50.85;102849.97;10301642;28;20331;-77
2022/04/15 12:53:01;;;;;;;6.93;4.57;;;;;;;22.57;49.98;102844.03;10300937;28;20110;-77
2022/04/15 12:58:03;;;;;;;5.22;4.72;;;;;;;22.46;44.17;102847.56;10296849;28;20247;-76
2022/04/15 13:03:03;;;;;;;5.82;5.35;;;;;;;20.81;47.63;102847.75;10282172;28;20433;-76
2022/04/15 13:08:04;;;;;;;6.03;5.07;;;;;;;19.22;49.61;102846.81;10296142;28;20043;-76
2022/04/15 13:13:04;;;;;;;5.28;3.80;;;;;;;19.24;51.57;102841.09;10298109;28;20041;-76
2022/04/15 13:18:05;;;;;;;5.50;5.03;;;;;;;19.40;50.93;102853.59;10297754;28;20475;-76
2022/04/15 13:23:05;;;;;;;5.68;5.18;;;;;;;20.32;49.69;102838.13;10278811;28;20043;-77
2022/04/15 13:28:06;;;;;;;5.47;5.00;;;;;;;20.46;49.12;102831.56;10295577;28;20038;-77
2022/04/15 13:33:08;;;;;;;5.53;5.03;;;;;;;20.20;49.26;102836.06;10296673;28;20046;-77
2022/04/15 13:38:08;;;;;;;5.20;4.80;;;;;;;20.08;49.72;102837.78;10296505;28;20364;-78
2022/04/15 13:43:09;;;;;;;7.90;5.60;;;;;;;20.53;51.82;102824.16;10295499;28;20038;-76
2022/04/15 13:48:11;;;;;;;5.28;4.70;;;;;;;21.18;52.33;102817.66;10294065;28;20085;-77
2022/04/15 13:58:31;;;;;;;6.22;5.72;;;;;;;19.64;50.21;102825.53;10292882;28;20039;-77
2022/04/15 14:03:32;;;;;;;8.95;5.70;;;;;;;19.46;50.86;102823.41;10294076;28;20047;-76
2022/04/15 14:08:33;;;;;;;5.78;5.35;;;;;;;18.61;53.61;102819.34;10296086;28;20049;-75
2022/04/15 14:13:34;;;;;;;7.90;5.22;;;;;;;18.67;55.10;102829.50;10294484;28;20109;-75
2022/04/15 14:18:35;;;;;;;5.53;4.53;;;;;;;19.03;52.31;102825.63;10294672;28;20039;-76
2022/04/15 14:23:35;;;;;;;6.05;5.53;;;;;;;18.96;54.20;102822.03;10294255;28;20406;-75
2022/04/15 14:28:36;;;;;;;7.30;6.55;;;;;;;18.86;54.56;102821.56;10293638;28;20205;-76
2022/04/15 14:33:36;;;;;;;13.65;5.35;;;;;;;18.79;54.46;102832.50;10294063;28;20047;-76
2022/04/15 14:38:38;;;;;;;8.85;5.20;;;;;;;18.83;55.99;102824.72;10293588;28;20508;-76
2022/04/15 14:43:39;;;;;;;8.10;5.50;;;;;;;18.52;53.67;102837.00;10230015;28;20142;-76
2022/04/15 14:48:41;;;;;;;7.57;5.10;;;;;;;17.48;56.76;102839.59;10294193;28;20403;-77
2022/04/15 14:53:41;;;;;;;6.38;5.78;;;;;;;17.90;56.94;102833.25;10293783;28;20050;-76
2022/04/15 14:58:43;;;;;;;6.25;5.75;;;;;;;18.02;55.89;102828.91;10276420;28;20479;-76
2022/04/15 15:03:44;;;;;;;7.75;5.65;;;;;;;17.38;58.11;102828.97;10292148;28;20039;-75
2022/04/15 15:08:45;;;;;;;6.97;5.45;;;;;;;16.96;59.38;102839.69;10278179;28;20062;-75
2022/04/15 15:13:46;;;;;;;6.80;6.20;;;;;;;16.08;62.41;102839.72;10300435;28;20054;-76
2022/04/15 15:18:46;;;;;;;6.55;5.90;;;;;;;15.29;65.69;102850.97;10284557;28;20035;-75
2022/04/15 15:34:24;;;;;;;7.68;6.93;;;;;;;15.02;66.14;102842.25;10300839;28;20031;-77
2022/04/15 15:39:25;;;;;;;7.88;6.25;;;;;;;14.84;66.40;102858.03;10299240;28;20138;-75
2022/04/15 15:44:25;;;;;;;10.98;6.63;;;;;;;14.64;67.12;102854.88;10282811;28;20026;-75
2022/04/15 15:49:26;;;;;;;20.23;7.18;;;;;;;14.45;66.17;102852.53;10299445;28;20042;-75
2022/04/15 15:54:26;;;;;;;8.75;6.68;;;;;;;14.21;69.67;102858.91;10282750;28;20606;-76
2022/04/15 15:59:28;;;;;;;12.85;8.60;;;;;;;14.04;69.61;102866.25;10282320;28;20039;-75
2022/04/15 16:04:29;;;;;;;10.35;8.50;;;;;;;13.91;69.87;102864.94;10281725;28;20064;-75
2022/04/15 16:09:29;;;;;;;10.88;7.00;;;;;;;13.88;71.83;102864.38;10299218;28;20122;-76
2022/04/15 16:14:30;;;;;;;13.88;6.70;;;;;;;13.75;71.14;102878.53;10299391;28;20034;-75
2022/04/15 16:19:31;;;;;;;8.75;6.40;;;;;;;13.34;73.20;102869.50;10299133;28;20105;-76
2022/04/15 16:24:31;;;;;;;12.27;7.57;;;;;;;13.42;73.13;102874.94;10299194;28;20062;-75
2022/04/15 16:29:32;;;;;;;6.65;5.60;;;;;;;13.10;74.30;102872.97;10300097;28;20418;-76
2022/04/15 16:34:32;;;;;;;9.38;7.55;;;;;;;13.00;74.00;102873.13;10298841;28;20078;-76
2022/04/15 16:39:33;;;;;;;10.68;6.05;;;;;;;13.08;73.23;102869.56;10296900;28;20498;-76
2022/04/15 16:44:33;;;;;;;8.10;6.15;;;;;;;13.01;74.40;102882.97;10297938;28;20035;-76
2022/04/15 16:49:33;;;;;;;12.70;7.00;;;;;;;12.89;75.26;102887.00;10298418;28;20066;-76
2022/04/15 16:59:53;;;;;;;7.70;6.43;;;;;;;12.44;76.87;102891.72;10296974;28;20038;-76
2022/04/15 17:04:55;;;;;;;6.90;5.47;;;;;;;12.34;76.43;102908.13;10298697;28;20530;-76
2022/04/15 17:09:56;;;;;;;6.95;6.25;;;;;;;12.01;77.27;102911.63;10296245;28;20043;-75
2022/04/15 17:14:56;;;;;;;9.27;7.55;;;;;;;11.78;78.60;102922.13;10297720;28;20046;-76
2022/04/15 17:19:57;;;;;;;7.50;6.60;;;;;;;11.83;78.13;102911.63;10296867;28;20497;-76
2022/04/15 17:24:57;;;;;;;5.82;5.35;;;;;;;11.76;77.36;102913.25;10279985;28;20035;-76
2022/04/15 17:29:57;;;;;;;6.75;5.65;;;;;;;11.43;79.27;102922.97;10279306;28;20529;-75
2022/04/15 17:34:58;;;;;;;5.97;5.38;;;;;;;11.40;78.74;102924.97;10298136;28;20034;-75
2022/04/15 17:39:58;;;;;;;9.35;6.30;;;;;;;11.22;80.69;102932.22;10298318;28;20042;-75
2022/04/15 17:44:59;;;;;;;6.03;5.40;;;;;;;11.15;80.79;102934.69;10295653;28;20376;-76
2022/04/15 17:49:59;;;;;;;6.28;5.38;;;;;;;10.98;82.84;102937.38;10295555;28;20062;-76
2022/04/15 17:55:00;;;;;;;7.43;5.38;;;;;;;10.76;83.75;102930.47;10295809;28;20471;-76
2022/04/15 18:00:01;;;;;;;6.07;5.35;;;;;;;10.62;84.60;102932.63;10279136;28;20078;-75
2022/04/15 18:05:01;;;;;;;9.68;7.03;;;;;;;10.55;85.20;102925.25;10309948;28;20414;-75
2022/04/15 18:10:02;;;;;;;7.22;6.55;;;;;;;10.46;86.42;102929.69;10295575;28;20042;-76
2022/04/15 18:15:03;;;;;;;8.07;5.80;;;;;;;10.39;86.23;102932.13;10277487;28;20039;-76
2022/04/15 18:20:05;;;;;;;6.30;5.70;;;;;;;10.27;87.76;102940.56;10293361;28;20031;-76
2022/04/15 18:25:05;;;;;;;6.20;5.57;;;;;;;10.16;87.78;102945.13;10295967;28;20035;-76
2022/04/15 18:30:06;;;;;;;8.55;5.60;;;;;;;10.11;87.75;102950.09;10294159;28;20050;-75
2022/04/15 18:35:07;;;;;;;7.00;6.30;;;;;;;9.91;89.13;102951.97;10294206;28;20114;-76
2022/04/15 18:40:08;;;;;;;6.22;5.72;;;;;;;9.87;89.27;102955.13;10295022;28;20031;-76
2022/04/15 18:45:08;;;;;;;5.90;5.40;;;;;;;9.69;89.74;102957.69;10296336;28;20037;-76
2022/04/15 18:55:28;;;;;;;13.75;6.80;;;;;;;9.60;88.34;102974.75;10306798;28;20035;-75
2022/04/15 19:00:28;;;;;;;7.93;7.15;;;;;;;9.51;88.66;102981.88;10306694;28;20403;-76
2022/04/15 19:05:29;;;;;;;8.90;6.57;;;;;;;9.51;87.49;102980.03;10290144;28;20118;-75
2022/04/15 19:10:29;;;;;;;10.57;5.95;;;;;;;9.45;89.02;102994.09;10307491;28;20032;-76
2022/04/15 19:15:30;;;;;;;6.53;5.93;;;;;;;9.45;88.53;102990.53;10306636;28;20035;-76
2022/04/15 19:20:30;;;;;;;13.70;7.68;;;;;;;9.41;88.98;102998.09;10309995;28;20047;-76
2022/04/15 19:25:34;;;;;;;13.35;8.05;;;;;;;9.43;89.18;103008.75;10305287;28;20038;-76
2022/04/15 19:30:34;;;;;;;10.35;7.05;;;;;;;9.39;88.94;103008.16;10307176;28;20082;-76
2022/04/15 19:35:35;;;;;;;9.45;6.93;;;;;;;9.31;90.57;103016.09;10305744;28;20486;-76
2022/04/15 19:40:36;;;;;;;10.23;7.68;;;;;;;9.36;89.35;103016.56;10305274;28;20035;-77
2022/04/15 19:45:37;;;;;;;8.07;6.88;;;;;;;9.34;89.92;103021.22;10322233;28;20089;-76
2022/04/15 19:50:42;;;;;;;6.90;6.03;;;;;;;9.32;90.17;103015.13;10308153;28;20086;-76
2022/04/15 19:55:42;;;;;;;9.45;6.82;;;;;;;9.35;89.53;103032.91;10306203;28;20173;-76
2022/04/15 20:06:07;;;;;;;7.07;6.50;;;;;;;9.32;88.67;103037.59;10299564;28;20035;-77
2022/04/15 20:11:08;;;;;;;10.52;7.80;;;;;;;9.30;90.67;103036.03;10300540;28;20026;-76
2022/04/15 20:16:10;;;;;;;7.82;6.15;;;;;;;9.25;91.23;103039.16;10266269;28;20054;-77
2022/04/15 20:21:10;;;;;;;11.77;7.93;;;;;;;9.30;88.70;103036.88;10299200;28;20181;-77
2022/04/15 20:26:10;;;;;;;10.52;7.85;;;;;;;9.30;88.24;103046.84;10300057;28;20062;-76
2022/04/15 20:31:16;;;;;;;9.45;8.52;;;;;;;9.31;89.25;103051.25;10298212;28;20392;-77
2022/04/15 20:36:16;;;;;;;8.43;7.55;;;;;;;9.35;89.58;103052.72;10297107;28;20074;-77
2022/04/15 20:41:16;;;;;;;11.93;8.02;;;;;;;9.46;87.01;103054.44;10298696;28;20042;-76
2022/04/15 20:46:17;;;;;;;9.65;7.22;;;;;;;9.63;85.84;103058.31;10296642;28;20371;-75
2022/04/15 20:51:21;;;;;;;12.25;8.10;;;;;;;9.79;85.68;103055.94;10299728;28;20121;-76
2022/04/15 20:56:22;;;;;;;15.98;7.55;;;;;;;9.98;85.48;103055.97;10296640;28;20041;-76
2022/04/15 21:01:22;;;;;;;8.10;7.20;;;;;;;10.13;84.49;103060.97;10279894;28;20041;-76
2022/04/15 21:06:23;;;;;;;7.47;6.88;;;;;;;10.12;87.01;103059.28;10296868;28;20081;-76
2022/04/15 21:11:23;;;;;;;8.85;7.20;;;;;;;10.17;87.71;103054.28;10296929;28;20039;-75
2022/04/15 21:16:24;;;;;;;10.02;8.43;;;;;;;10.25;87.19;103051.72;10298721;28;20117;-76
2022/04/15 21:21:24;;;;;;;10.27;9.05;;;;;;;10.23;88.06;103049.16;10281550;28;20042;-76
2022/04/15 21:26:35;;;;;;;10.32;8.20;;;;;;;10.33;87.36;103057.28;10297020;28;20035;-77
2022/04/15 21:31:37;;;;;;;10.05;8.65;;;;;;;10.31;88.43;103043.06;10298796;28;20070;-76
2022/04/15 21:36:37;;;;;;;9.88;8.77;;;;;;;10.33;89.60;103049.16;10297446;28;20042;-76
2022/04/15 21:41:38;;;;;;;8.52;7.60;;;;;;;10.34;89.73;103055.44;10296214;28;20037;-76
2022/04/15 21:46:38;;;;;;;10.73;9.13;;;;;;;10.17;88.02;103046.16;10294685;28;20042;-75
2022/04/15 21:57:07;;;;;;;8.35;7.30;;;;;;;10.22;87.14;103049.31;10293987;28;20047;-76
2022/04/15 22:02:09;;;;;;;8.48;7.47;;;;;;;10.36;85.87;103058.88;10296043;28;20035;-76
2022/04/15 22:07:11;;;;;;;10.40;6.97;;;;;;;10.30;87.57;103060.28;10295366;28;20478;-76
2022/04/15 22:12:13;;;;;;;9.15;8.20;;;;;;;10.27;87.02;103054.31;10295232;28;20039;-76
2022/04/15 22:17:15;;;;;;;8.43;7.57;;;;;;;10.28;87.10;103056.03;10296033;28;20031;-77
2022/04/15 22:22:17;;;;;;;9.35;7.25;;;;;;;10.16;87.35;103050.72;10297028;28;20046;-75
2022/04/15 22:27:17;;;;;;;12.95;9.50;;;;;;;10.10;87.29;103050.44;10294033;28;20062;-76
2022/04/15 22:32:19;;;;;;;9.35;8.27;;;;;;;10.12;86.84;103048.44;10292627;28;20054;-76
2022/04/15 22:37:19;;;;;;;9.82;8.63;;;;;;;10.17;87.17;103052.41;10295068;28;20081;-75
2022/04/15 22:42:19;;;;;;;12.70;9.05;;;;;;;10.11;87.04;103039.44;10295041;28;20065;-76
2022/04/15 22:47:44;;;;;;;10.75;9.65;;;;;;;10.05;86.88;103045.47;10294350;28;20042;-75
2022/04/15 22:52:41;;;;;;;12.95;9.90;;;;;;;10.06;86.94;103054.44;10291983;28;20046;-76
2022/04/15 22:57:42;;;;;;;9.23;7.68;;;;;;;9.96;87.73;103047.16;10293409;28;20034;-76
2022/04/15 23:02:43;;;;;;;12.40;9.82;;;;;;;10.01;87.92;103060.25;10277530;28;20459;-76
2022/04/15 23:07:45;;;;;;;13.75;9.82;;;;;;;10.02;87.91;103061.97;10292030;28;20027;-76
2022/04/15 23:12:46;;;;;;;11.90;9.38;;;;;;;10.02;87.79;103059.28;10292555;28;20039;-76
2022/04/15 23:17:48;;;;;;;11.77;9.50;;;;;;;10.02;88.27;103065.53;10293679;28;20478;-76
2022/04/15 23:22:49;;;;;;;14.43;10.30;;;;;;;10.02;88.43;103068.25;10294289;28;20034;-76
2022/04/15 23:27:49;;;;;;;13.57;10.50;;;;;;;10.06;88.39;103067.97;10294673;28;20027;-76
2022/04/15 23:32:51;;;;;;;13.60;9.43;;;;;;;10.01;88.53;103079.19;10297226;28;20124;-76